createdAt,value
2023-02-03T00:02:07.516Z,1.10
2023-02-03T00:04:34.476Z,1.02
2023-02-03T00:07:01.352Z,1.52
2023-02-03T00:09:28.175Z,1.50
2023-02-03T00:11:55.634Z,1.75
2023-02-03T00:14:22.597Z,1.48
2023-02-03T00:16:49.763Z,1.58
2023-02-03T00:19:17.732Z,1.52
2023-02-03T00:21:44.963Z,1.10
2023-02-03T00:24:12.265Z,2.17
2023-02-03T00:26:43.629Z,2.60
2023-02-03T00:29:11.014Z,3.38
2023-02-03T00:31:38.225Z,3.80
2023-02-03T00:34:05.226Z,4.97
2023-02-03T00:36:32.616Z,3.83
2023-02-03T00:39:01.537Z,4.60
2023-02-03T00:41:31.244Z,3.05
2023-02-03T00:43:58.077Z,5.13
2023-02-03T00:46:24.918Z,6.05
2023-02-03T00:48:52.172Z,5.47
2023-02-03T00:51:19.195Z,6.30
2023-02-03T00:53:47.182Z,4.32
2023-02-03T00:56:14.011Z,7.30
2023-02-03T00:58:41.482Z,3.85
2023-02-03T01:01:08.523Z,6.03
2023-02-03T01:03:35.547Z,3.97
2023-02-03T01:06:17.691Z,5.43
2023-02-03T01:08:45.005Z,3.67
2023-02-03T01:11:17.753Z,4.55
2023-02-03T01:13:44.755Z,3.70
2023-02-03T01:16:13.835Z,4.03
2023-02-03T01:18:41.546Z,5.40
2023-02-03T01:21:15.295Z,3.58
2023-02-03T01:23:43.074Z,3.63
2023-02-03T01:26:14.072Z,4.75
2023-02-03T01:28:42.168Z,4.78
2023-02-03T01:31:14.641Z,4.65
2023-02-03T01:33:46.318Z,3.58
2023-02-03T01:36:15.084Z,5.00
2023-02-03T01:38:41.973Z,5.72
2023-02-03T01:41:13.159Z,4.13
2023-02-03T01:43:43.305Z,6.18
2023-02-03T01:46:19.155Z,5.35
2023-02-03T01:48:46.541Z,6.68
2023-02-03T01:51:13.412Z,10.40
2023-02-03T01:53:41.059Z,7.70
2023-02-03T01:56:09.471Z,8.20
2023-02-03T01:58:40.814Z,6.93
2023-02-03T02:01:08.308Z,9.02
2023-02-03T02:03:41.383Z,8.43
2023-02-03T02:06:10.898Z,9.02
2023-02-03T02:08:40.163Z,9.45
2023-02-03T02:11:08.176Z,7.88
2023-02-03T02:13:36.337Z,10.35
2023-02-03T02:16:14.960Z,10.82
2023-02-03T02:19:16.232Z,11.48
2023-02-03T02:21:54.055Z,11.45
2023-02-03T02:24:48.663Z,14.40
2023-02-03T02:27:48.807Z,11.77
2023-02-03T02:30:43.361Z,9.73
2023-02-03T02:33:44.136Z,10.23
2023-02-03T02:36:35.145Z,9.82
2023-02-03T02:39:12.133Z,12.88
2023-02-03T02:41:52.465Z,10.30
2023-02-03T02:44:22.342Z,9.30
2023-02-03T02:47:01.318Z,9.32
2023-02-03T02:49:51.105Z,7.30
2023-02-03T02:52:19.073Z,14.35
2023-02-03T02:54:52.452Z,10.30
2023-02-03T02:57:21.575Z,10.77
2023-02-03T02:59:49.123Z,9.55
2023-02-03T03:02:17.160Z,12.68
2023-02-03T03:04:46.715Z,10.57
2023-02-03T03:07:22.423Z,12.75
2023-02-03T03:09:58.529Z,8.35
2023-02-03T03:12:32.085Z,7.97
2023-02-03T03:15:03.721Z,8.68
2023-02-03T03:17:34.907Z,7.57
2023-02-03T03:20:12.564Z,8.75
2023-02-03T03:22:45.653Z,7.40
2023-02-03T03:25:19.582Z,5.22
2023-02-03T03:28:02.824Z,5.80
2023-02-03T03:30:34.812Z,5.55
2023-02-03T03:33:02.564Z,8.05
2023-02-03T03:35:39.203Z,6.15
2023-02-03T03:38:44.987Z,6.40
2023-02-03T03:41:30.242Z,6.38
2023-02-03T03:44:01.617Z,10.48
2023-02-03T03:46:35.573Z,15.60
2023-02-03T03:49:06.164Z,10.50
2023-02-03T03:52:05.225Z,7.90
2023-02-03T03:54:33.897Z,8.27
2023-02-03T03:57:15.168Z,6.20
2023-02-03T03:59:46.645Z,7.05
2023-02-03T04:02:14.587Z,7.07
2023-02-03T04:04:43.461Z,7.82
2023-02-03T04:07:10.363Z,13.85
2023-02-03T04:09:37.414Z,14.63
2023-02-03T04:12:06.055Z,12.75
2023-02-03T04:14:35.571Z,9.27
2023-02-03T04:17:02.452Z,10.13
2023-02-03T04:19:29.722Z,8.45
2023-02-03T04:21:57.462Z,6.95
2023-02-03T04:24:24.253Z,6.13
2023-02-03T04:26:51.901Z,7.38
2023-02-03T04:29:18.693Z,7.15
2023-02-03T04:31:45.497Z,9.65
2023-02-03T04:34:12.782Z,9.18
2023-02-03T04:36:39.679Z,7.43
2023-02-03T04:39:06.476Z,8.25
2023-02-03T04:41:33.732Z,7.18
2023-02-03T04:44:00.556Z,6.10
2023-02-03T04:46:27.402Z,8.63
2023-02-03T04:48:54.599Z,6.38
2023-02-03T04:51:21.477Z,5.05
2023-02-03T04:53:48.473Z,5.93
2023-02-03T04:56:16.437Z,5.57
2023-02-03T04:58:43.657Z,7.90
2023-02-03T05:01:11.031Z,9.15
2023-02-03T05:03:37.976Z,10.07
2023-02-03T05:06:05.693Z,6.65
2023-02-03T05:08:32.818Z,7.07
2023-02-03T05:11:02.029Z,5.80
2023-02-03T05:13:29.797Z,4.05
2023-02-03T05:15:56.981Z,4.72
2023-02-03T05:18:24.295Z,3.15
2023-02-03T05:20:51.543Z,5.47
2023-02-03T05:23:18.473Z,8.85
2023-02-03T05:25:46.012Z,12.07
2023-02-03T05:28:12.910Z,6.32
2023-02-03T05:30:39.810Z,6.85
2023-02-03T05:33:06.960Z,13.85
2023-02-03T05:35:34.305Z,9.05
2023-02-03T05:38:01.216Z,10.50
2023-02-03T05:40:46.537Z,10.88
2023-02-03T05:43:13.488Z,11.48
2023-02-03T05:45:40.324Z,9.63
2023-02-03T05:48:10.060Z,15.02
2023-02-03T05:50:38.706Z,16.17
2023-02-03T05:53:07.033Z,12.45
2023-02-03T05:55:34.525Z,16.60
2023-02-03T05:58:01.488Z,17.65
2023-02-03T06:00:29.633Z,16.17
2023-02-03T06:02:59.074Z,17.08
2023-02-03T06:05:26.869Z,16.35
2023-02-03T06:07:54.600Z,10.40
2023-02-03T06:10:22.028Z,12.98
2023-02-03T06:12:49.812Z,12.00
2023-02-03T06:15:16.984Z,13.75
2023-02-03T06:17:48.373Z,14.27
2023-02-03T06:20:18.044Z,17.73
2023-02-03T06:22:45.392Z,36.50
2023-02-03T06:25:14.372Z,27.20
2023-02-03T06:27:42.433Z,25.35
2023-02-03T06:30:11.358Z,21.33
2023-02-03T06:32:38.366Z,18.92
2023-02-03T06:35:05.293Z,17.58
2023-02-03T06:37:32.523Z,14.25
2023-02-03T06:39:59.343Z,15.15
2023-02-03T06:42:26.155Z,16.00
2023-02-03T06:44:53.643Z,16.05
2023-02-03T06:47:20.661Z,15.20
2023-02-03T06:49:47.999Z,12.07
2023-02-03T06:52:15.641Z,16.73
2023-02-03T06:54:42.477Z,12.13
2023-02-03T06:57:09.315Z,14.13
2023-02-03T06:59:36.100Z,11.50
2023-02-03T07:02:02.947Z,12.65
2023-02-03T07:04:30.255Z,13.52
2023-02-03T07:06:57.772Z,12.93
2023-02-03T07:09:25.136Z,13.27
2023-02-03T07:11:51.940Z,10.35
2023-02-03T07:14:18.933Z,10.70
2023-02-03T07:16:45.800Z,15.73
2023-02-03T07:19:12.773Z,10.85
2023-02-03T07:21:39.520Z,12.25
2023-02-03T07:24:06.905Z,12.77
2023-02-03T07:26:33.739Z,11.60
2023-02-03T07:29:00.877Z,13.50
2023-02-03T07:31:27.960Z,7.40
2023-02-03T07:33:54.776Z,7.88
2023-02-03T07:36:21.931Z,7.13
2023-02-03T07:38:49.149Z,9.27
2023-02-03T07:41:18.058Z,7.22
2023-02-03T07:43:45.301Z,8.23
2023-02-03T07:46:12.414Z,9.02
2023-02-03T07:48:39.265Z,7.80
2023-02-03T07:51:06.177Z,6.60
2023-02-03T07:53:33.513Z,9.10
2023-02-03T07:56:04.011Z,16.50
2023-02-03T07:58:31.801Z,7.43
2023-02-03T08:00:59.599Z,5.35
2023-02-03T08:03:26.526Z,7.97
2023-02-03T08:05:54.225Z,6.57
2023-02-03T08:08:21.058Z,8.35
2023-02-03T08:10:48.255Z,7.85
2023-02-03T08:13:15.115Z,7.47
2023-02-03T08:15:41.965Z,9.82
2023-02-03T08:18:09.787Z,13.35
2023-02-03T08:20:36.659Z,11.32
2023-02-03T08:23:03.884Z,7.10
2023-02-03T08:25:31.124Z,5.28
2023-02-03T08:27:58.023Z,5.50
2023-02-03T08:30:25.991Z,5.32
2023-02-03T08:32:53.362Z,6.20
2023-02-03T08:35:20.149Z,4.85
2023-02-03T08:37:47.046Z,5.47
2023-02-03T08:40:16.200Z,4.38
2023-02-03T08:42:43.399Z,5.47
2023-02-03T08:45:10.393Z,4.85
2023-02-03T08:47:38.038Z,6.68
2023-02-03T08:50:07.777Z,11.52
2023-02-03T08:52:34.622Z,6.43
2023-02-03T08:55:02.000Z,7.85
2023-02-03T08:57:33.738Z,6.05
2023-02-03T09:00:01.168Z,6.20
2023-02-03T09:02:27.964Z,7.03
2023-02-03T09:04:54.962Z,6.72
2023-02-03T09:07:22.003Z,9.18
2023-02-03T09:09:49.467Z,6.22
2023-02-03T09:12:17.397Z,4.80
2023-02-03T09:14:44.175Z,4.65
2023-02-03T09:17:10.991Z,4.05
2023-02-03T09:19:37.836Z,2.75
2023-02-03T09:22:05.519Z,4.07
2023-02-03T09:24:32.436Z,2.78
2023-02-03T09:27:01.155Z,2.13
2023-02-03T09:29:28.515Z,2.47
2023-02-03T09:31:55.484Z,2.42
2023-02-03T09:34:22.845Z,2.60
2023-02-03T09:36:51.428Z,5.30
2023-02-03T09:39:18.709Z,2.63
2023-02-03T09:42:03.465Z,4.40
2023-02-03T09:44:49.160Z,2.92
2023-02-03T09:47:22.873Z,3.88
2023-02-03T09:49:57.187Z,4.22
2023-02-03T09:52:39.420Z,8.27
2023-02-03T09:55:34.015Z,5.35
2023-02-03T09:58:09.033Z,6.85
2023-02-03T10:00:41.652Z,4.78
2023-02-03T10:03:27.904Z,5.55
2023-02-03T10:06:12.757Z,7.55
2023-02-03T10:09:24.569Z,40.08
2023-02-03T10:12:02.074Z,28.17
2023-02-03T10:14:35.254Z,8.27
2023-02-03T10:17:23.488Z,6.90
2023-02-03T10:19:56.953Z,8.48
2023-02-03T10:22:28.472Z,9.68
2023-02-03T10:25:03.419Z,8.32
2023-02-03T10:27:32.993Z,9.00
2023-02-03T10:30:17.270Z,10.55
2023-02-03T10:32:44.103Z,9.50
2023-02-03T10:35:15.542Z,11.60
2023-02-03T10:37:52.089Z,9.93
2023-02-03T10:40:26.649Z,9.15
2023-02-03T10:43:12.343Z,9.05
2023-02-03T10:45:40.371Z,7.90
2023-02-03T10:48:14.863Z,6.72
2023-02-03T10:50:48.864Z,7.70
2023-02-03T10:53:18.828Z,8.23
2023-02-03T10:55:48.680Z,7.95
2023-02-03T10:58:22.298Z,6.85
2023-02-03T11:00:56.886Z,8.23
2023-02-03T11:03:28.225Z,8.30
2023-02-03T11:06:11.927Z,7.22
2023-02-03T11:08:43.124Z,15.95
2023-02-03T11:11:14.717Z,6.13
2023-02-03T11:13:41.730Z,12.25
2023-02-03T11:16:20.790Z,8.35
2023-02-03T11:18:50.389Z,7.43
2023-02-03T11:21:27.768Z,14.65
2023-02-03T11:23:56.723Z,6.65
2023-02-03T11:26:27.858Z,6.78
2023-02-03T11:28:58.540Z,8.07
2023-02-03T11:31:28.686Z,6.57
2023-02-03T11:34:03.563Z,9.45
2023-02-03T11:36:32.848Z,7.68
2023-02-03T11:39:35.486Z,6.97
2023-02-03T11:42:03.554Z,6.38
2023-02-03T11:44:33.652Z,10.18
2023-02-03T11:47:11.853Z,9.50
2023-02-03T11:50:10.470Z,7.18
2023-02-03T11:52:52.295Z,4.85
2023-02-03T11:56:05.941Z,12.15
2023-02-03T11:58:50.917Z,14.27
2023-02-03T12:01:58.644Z,15.20
2023-02-03T12:04:55.426Z,10.30
2023-02-03T12:07:31.318Z,8.90
2023-02-03T12:10:16.375Z,5.43
2023-02-03T12:13:10.489Z,10.73
2023-02-03T12:16:08.913Z,6.68
2023-02-03T12:19:05.602Z,5.25
2023-02-03T12:22:00.619Z,5.50
2023-02-03T12:24:33.094Z,4.65
2023-02-03T12:27:22.309Z,5.60
2023-02-03T12:30:02.028Z,5.38
2023-02-03T12:32:34.053Z,5.55
2023-02-03T12:35:18.843Z,7.07
2023-02-03T12:38:05.463Z,5.30
2023-02-03T12:40:37.579Z,7.55
2023-02-03T12:43:39.585Z,5.15
2023-02-03T12:46:16.970Z,5.75
2023-02-03T12:48:56.905Z,7.70
2023-02-03T12:51:45.550Z,6.32
2023-02-03T12:54:36.797Z,6.50
2023-02-03T12:57:22.032Z,6.28
2023-02-03T13:00:13.610Z,6.53
2023-02-03T13:03:03.890Z,4.18
2023-02-03T13:05:42.885Z,5.65
2023-02-03T13:08:36.801Z,7.47
2023-02-03T13:11:19.915Z,10.15
2023-02-03T13:13:52.043Z,12.57
2023-02-03T13:16:25.259Z,11.82
2023-02-03T13:19:02.005Z,5.82
2023-02-03T13:21:29.166Z,8.05
2023-02-03T13:23:56.377Z,12.32
2023-02-03T13:26:23.084Z,5.25
2023-02-03T13:29:15.393Z,7.22
2023-02-03T13:32:02.479Z,9.18
2023-02-03T13:34:32.085Z,10.60
2023-02-03T13:37:34.309Z,5.57
2023-02-03T13:40:16.373Z,5.22
2023-02-03T13:42:52.921Z,8.00
2023-02-03T13:45:38.871Z,7.15
2023-02-03T13:48:18.023Z,7.68
2023-02-03T13:50:46.370Z,11.10
2023-02-03T13:53:19.325Z,7.53
2023-02-03T13:55:58.391Z,8.25
2023-02-03T13:58:31.217Z,10.63
2023-02-03T14:01:05.889Z,10.73
2023-02-03T14:03:35.488Z,17.27
2023-02-03T14:06:03.583Z,11.60
2023-02-03T14:08:30.393Z,7.55
2023-02-03T14:11:31.633Z,7.90
2023-02-03T14:14:04.518Z,10.55
2023-02-03T14:16:36.151Z,12.82
2023-02-03T14:19:03.743Z,13.90
2023-02-03T14:21:43.078Z,17.55
2023-02-03T14:24:11.957Z,19.40
2023-02-03T14:26:45.809Z,21.35
2023-02-03T14:29:35.224Z,17.90
2023-02-03T14:32:14.285Z,15.82
2023-02-03T14:34:42.673Z,24.05
2023-02-03T14:37:14.297Z,20.98
2023-02-03T14:39:41.092Z,22.30
2023-02-03T14:42:38.568Z,17.73
2023-02-03T14:45:11.161Z,26.75
2023-02-03T14:48:13.335Z,20.52
2023-02-03T14:51:17.222Z,18.17
2023-02-03T14:53:50.428Z,15.75
2023-02-03T14:56:26.403Z,16.00
2023-02-03T14:58:58.505Z,13.02
2023-02-03T15:01:37.673Z,10.50
2023-02-03T15:04:14.107Z,17.23
2023-02-03T15:06:47.108Z,16.23
2023-02-03T15:09:39.571Z,15.25
2023-02-03T15:12:24.107Z,18.27
2023-02-03T15:14:50.990Z,12.07
2023-02-03T15:17:28.976Z,25.55
2023-02-03T15:19:55.975Z,21.40
2023-02-03T15:22:27.833Z,20.65
2023-02-03T15:25:00.481Z,22.13
2023-02-03T15:27:30.400Z,19.17
2023-02-03T15:29:59.163Z,28.73
2023-02-03T15:32:38.944Z,75.35
2023-02-03T15:35:10.056Z,42.75
2023-02-03T15:37:42.624Z,76.20
2023-02-03T15:40:18.281Z,68.03
2023-02-03T15:42:53.926Z,47.03
2023-02-03T15:45:23.923Z,155.65
2023-02-03T15:48:03.988Z,117.65
2023-02-03T15:50:36.683Z,77.68
2023-02-03T15:53:12.177Z,72.70
2023-02-03T15:55:44.347Z,37.78
2023-02-03T15:58:23.428Z,27.88
2023-02-03T16:00:56.825Z,53.40
2023-02-03T16:03:54.568Z,110.63
2023-02-03T16:06:39.277Z,83.43
2023-02-03T16:09:25.418Z,54.03
2023-02-03T16:12:14.425Z,45.40
2023-02-03T16:14:43.858Z,40.90
2023-02-03T16:17:34.023Z,35.50
2023-02-03T16:20:31.042Z,33.65
2023-02-03T16:23:19.689Z,74.78
2023-02-03T16:26:01.957Z,66.18
2023-02-03T16:28:47.744Z,68.03
2023-02-03T16:31:38.942Z,65.28
2023-02-03T16:34:34.314Z,40.88
2023-02-03T16:37:19.729Z,33.28
2023-02-03T16:40:05.208Z,33.85
2023-02-03T16:42:58.466Z,31.90
2023-02-03T16:45:54.116Z,37.88
2023-02-03T16:48:53.459Z,36.88
2023-02-03T16:51:21.329Z,31.98
2023-02-03T16:53:48.439Z,41.28
2023-02-03T16:56:17.855Z,39.70
2023-02-03T16:58:45.576Z,35.95
2023-02-03T17:01:12.570Z,32.70
2023-02-03T17:03:39.665Z,34.28
2023-02-03T17:06:09.509Z,31.58
2023-02-03T17:08:37.288Z,29.25
2023-02-03T17:11:09.481Z,31.10
2023-02-03T17:13:36.867Z,30.77
2023-02-03T17:16:10.083Z,51.80
2023-02-03T17:18:39.311Z,43.50
2023-02-03T17:21:12.680Z,42.03
2023-02-03T17:23:49.048Z,39.35
2023-02-03T17:26:48.283Z,47.25
2023-02-03T17:29:15.336Z,62.47
2023-02-03T17:31:42.588Z,55.60
2023-02-03T17:34:09.512Z,57.65
2023-02-03T17:36:36.375Z,41.78
2023-02-03T17:55:32.380Z,41.65
2023-02-03T17:57:59.496Z,49.03
2023-02-03T18:00:27.403Z,43.30
2023-02-03T18:02:54.330Z,33.00
2023-02-03T18:05:21.135Z,38.70
2023-02-03T18:10:15.862Z,38.65
2023-02-03T18:12:42.744Z,38.63
2023-02-03T18:15:09.768Z,38.70
2023-02-03T18:17:36.644Z,37.78
2023-02-03T18:20:04.056Z,31.88
2023-02-03T18:22:31.325Z,33.58
2023-02-03T18:24:58.804Z,30.65
2023-02-03T18:27:25.812Z,34.17
2023-02-03T18:29:52.605Z,34.00
2023-02-03T18:32:20.051Z,35.78
2023-02-03T18:34:46.977Z,33.20
2023-02-03T18:37:14.155Z,34.95
2023-02-03T18:39:41.140Z,32.25
2023-02-03T18:42:08.409Z,36.58
2023-02-03T18:44:35.675Z,79.90
2023-02-03T18:47:07.097Z,45.53
2023-02-03T18:49:36.228Z,50.10
2023-02-03T18:52:04.395Z,37.10
2023-02-03T18:54:31.241Z,37.05
2023-02-03T18:56:59.129Z,30.33
2023-02-03T18:59:26.234Z,38.33
2023-02-03T19:01:53.908Z,35.03
2023-02-03T19:04:20.945Z,34.08
2023-02-03T19:06:48.344Z,45.50
2023-02-03T19:09:17.997Z,53.35
2023-02-03T19:11:45.264Z,39.13
2023-02-03T19:14:14.280Z,37.88
2023-02-03T19:16:41.149Z,43.90
2023-02-03T19:19:08.409Z,49.90
2023-02-03T19:21:35.332Z,46.35
2023-02-03T19:24:02.107Z,46.67
2023-02-03T19:26:28.988Z,75.00
2023-02-03T19:28:56.314Z,50.35
2023-02-03T19:31:23.728Z,56.97
2023-02-03T19:33:51.004Z,56.47
2023-02-03T19:36:18.194Z,63.88
2023-02-03T19:38:44.986Z,50.35
2023-02-03T19:41:12.897Z,55.70
2023-02-03T19:43:40.245Z,60.53
2023-02-03T19:46:08.358Z,59.95
2023-02-03T19:48:35.434Z,54.05
2023-02-03T19:51:02.243Z,55.50
2023-02-03T19:53:29.085Z,40.95
2023-02-03T19:55:56.322Z,33.42
2023-02-03T19:58:26.272Z,27.77
2023-02-03T20:00:53.861Z,29.40
2023-02-03T20:03:20.769Z,31.48
2023-02-03T20:05:47.562Z,30.85
2023-02-03T20:08:15.677Z,29.38
2023-02-03T20:10:45.425Z,27.67
2023-02-03T20:13:13.214Z,24.80
2023-02-03T20:15:40.273Z,24.63
2023-02-03T20:18:07.963Z,26.92
2023-02-03T20:20:35.501Z,31.90
2023-02-03T20:23:02.446Z,42.75
2023-02-03T20:25:29.378Z,42.92
2023-02-03T20:27:58.202Z,41.53
2023-02-03T20:30:25.988Z,39.30
2023-02-03T20:32:54.669Z,39.83
2023-02-03T20:35:23.610Z,33.17
2023-02-03T20:37:50.598Z,31.63
2023-02-03T20:40:22.281Z,36.15
2023-02-03T20:42:51.087Z,40.28
2023-02-03T20:45:19.336Z,38.83
2023-02-03T20:47:46.375Z,38.55
2023-02-03T20:50:26.985Z,37.28
2023-02-03T20:52:58.272Z,31.85
2023-02-03T20:55:25.117Z,35.25
2023-02-03T20:57:54.821Z,33.05
2023-02-03T21:00:24.958Z,32.13
2023-02-03T21:03:10.815Z,27.60
2023-02-03T21:05:40.636Z,27.60
2023-02-03T21:08:19.263Z,30.15
2023-02-03T21:10:47.958Z,28.05
2023-02-03T21:13:22.663Z,23.55
2023-02-03T21:15:51.420Z,17.75
2023-02-03T21:18:44.462Z,19.08
2023-02-03T21:21:16.284Z,20.15
2023-02-03T21:23:47.363Z,20.95
2023-02-03T21:26:34.721Z,15.88
2023-02-03T21:29:01.915Z,14.68
2023-02-03T21:31:31.391Z,22.67
2023-02-03T21:34:00.377Z,15.77
2023-02-03T21:36:34.273Z,15.77
2023-02-03T21:39:01.834Z,16.65
2023-02-03T21:41:33.455Z,12.90
2023-02-03T21:44:00.679Z,11.25
2023-02-03T21:46:31.747Z,8.55
2023-02-03T21:49:02.630Z,6.18
2023-02-03T21:51:36.607Z,5.18
2023-02-03T21:54:30.599Z,4.32
2023-02-03T21:56:58.684Z,4.60
2023-02-03T21:59:36.927Z,3.05
2023-02-03T22:02:20.526Z,3.42
2023-02-03T22:04:47.444Z,5.00
2023-02-03T22:07:24.385Z,4.47
2023-02-03T22:09:51.638Z,3.53
2023-02-03T22:12:18.486Z,6.88
2023-02-03T22:14:45.401Z,4.22
2023-02-03T22:17:14.300Z,4.25
2023-02-03T22:19:41.181Z,5.65
2023-02-03T22:22:08.102Z,5.57
2023-02-03T22:24:35.077Z,7.68
2023-02-03T22:27:01.965Z,7.40
2023-02-03T22:29:29.201Z,5.22
2023-02-03T22:31:56.501Z,6.72
2023-02-03T22:34:23.960Z,9.93
2023-02-03T22:36:51.244Z,17.92
2023-02-03T22:39:18.068Z,23.30
2023-02-03T22:41:45.068Z,20.67
2023-02-03T22:44:16.115Z,34.70
2023-02-03T22:46:43.380Z,29.02
2023-02-03T22:49:10.647Z,41.03
2023-02-03T22:51:37.496Z,20.73
2023-02-03T22:54:04.427Z,43.03
2023-02-03T22:56:35.312Z,37.75
2023-02-03T22:59:02.193Z,34.83
2023-02-03T23:01:28.995Z,22.75
2023-02-03T23:03:55.804Z,29.88
2023-02-03T23:06:22.649Z,24.38
2023-02-03T23:08:49.601Z,26.67
2023-02-03T23:11:16.428Z,47.45
2023-02-03T23:13:43.680Z,30.17
2023-02-03T23:16:10.979Z,34.45
2023-02-03T23:18:37.795Z,26.58
2023-02-03T23:21:05.193Z,26.70
2023-02-03T23:23:31.980Z,26.55
2023-02-03T23:25:59.264Z,29.70
2023-02-03T23:28:26.511Z,28.92
2023-02-03T23:30:53.357Z,26.60
2023-02-03T23:33:20.256Z,34.03
2023-02-03T23:35:47.599Z,17.05
2023-02-03T23:38:16.732Z,21.17
2023-02-03T23:40:44.385Z,19.20
2023-02-03T23:43:11.230Z,20.98
2023-02-03T23:45:38.559Z,16.83
2023-02-03T23:48:06.017Z,12.98
2023-02-03T23:53:09.444Z,17.95
2023-02-03T23:55:36.531Z,12.25
2023-02-03T23:58:05.059Z,15.88
